sensor_id;sensor_type;location;lat;lon;timestamp;pressure;altitude;pressure_sealevel;temperature;humidity
60974;BME280;46846;51.528;5.076;2023-02-02T00:00:51;101674.09;;;5.04;81.58
60974;BME280;46846;51.528;5.076;2023-02-02T00:03:16;101669.69;;;5.05;82.07
60974;BME280;46846;51.528;5.076;2023-02-02T00:05:50;101674.09;;;4.93;82.64
60974;BME280;46846;51.528;5.076;2023-02-02T00:08:16;101674.94;;;4.89;82.26
60974;BME280;46846;51.528;5.076;2023-02-02T00:10:42;101674.06;;;4.92;81.85
60974;BME280;46846;51.528;5.076;2023-02-02T00:13:08;101667.03;;;4.96;82.23
60974;BME280;46846;51.528;5.076;2023-02-02T00:15:33;101661.78;;;5.00;82.33
60974;BME280;46846;51.528;5.076;2023-02-02T00:17:59;101669.69;;;4.88;82.19
60974;BME280;46846;51.528;5.076;2023-02-02T00:20:24;101670.56;;;4.91;82.50
60974;BME280;46846;51.528;5.076;2023-02-02T00:22:49;101668.81;;;4.93;82.42
60974;BME280;46846;51.528;5.076;2023-02-02T00:25:15;101673.22;;;5.02;81.99
60974;BME280;46846;51.528;5.076;2023-02-02T00:27:40;101667.91;;;4.87;82.55
60974;BME280;46846;51.528;5.076;2023-02-02T00:30:08;101673.22;;;4.96;81.77
60974;BME280;46846;51.528;5.076;2023-02-02T00:32:34;101674.06;;;4.89;82.57
60974;BME280;46846;51.528;5.076;2023-02-02T00:34:59;101667.06;;;5.02;82.25
60974;BME280;46846;51.528;5.076;2023-02-02T00:37:25;101676.72;;;4.95;82.31
60974;BME280;46846;51.528;5.076;2023-02-02T00:39:50;101675.00;;;5.03;81.92
60974;BME280;46846;51.528;5.076;2023-02-02T00:42:16;101680.22;;;4.89;82.25
60974;BME280;46846;51.528;5.076;2023-02-02T00:44:41;101672.31;;;4.96;82.19
60974;BME280;46846;51.528;5.076;2023-02-02T00:47:25;101686.41;;;5.05;81.42
60974;BME280;46846;51.528;5.076;2023-02-02T00:49:51;101683.75;;;4.90;83.11
60974;BME280;46846;51.528;5.076;2023-02-02T00:52:16;101681.09;;;4.90;82.91
60974;BME280;46846;51.528;5.076;2023-02-02T00:54:41;101687.22;;;4.86;82.67
60974;BME280;46846;51.528;5.076;2023-02-02T00:57:10;101687.28;;;4.95;82.63
60974;BME280;46846;51.528;5.076;2023-02-02T00:59:36;101688.16;;;5.02;82.20
60974;BME280;46846;51.528;5.076;2023-02-02T01:02:02;101690.81;;;4.94;82.93
60974;BME280;46846;51.528;5.076;2023-02-02T01:04:27;101692.56;;;4.95;82.48
60974;BME280;46846;51.528;5.076;2023-02-02T01:06:52;101691.66;;;4.95;82.48
60974;BME280;46846;51.528;5.076;2023-02-02T01:09:18;101688.19;;;5.08;81.53
60974;BME280;46846;51.528;5.076;2023-02-02T01:11:43;101692.53;;;5.01;81.80
60974;BME280;46846;51.528;5.076;2023-02-02T01:14:08;101684.66;;;5.00;82.12
60974;BME280;46846;51.528;5.076;2023-02-02T01:16:34;101690.81;;;5.06;82.08
60974;BME280;46846;51.528;5.076;2023-02-02T01:18:59;101685.53;;;5.05;81.98
60974;BME280;46846;51.528;5.076;2023-02-02T01:21:24;101687.31;;;5.06;81.80
60974;BME280;46846;51.528;5.076;2023-02-02T01:23:50;101687.31;;;5.14;81.50
60974;BME280;46846;51.528;5.076;2023-02-02T01:26:16;101685.53;;;5.16;81.66
60974;BME280;46846;51.528;5.076;2023-02-02T01:28:41;101688.19;;;5.10;81.80
60974;BME280;46846;51.528;5.076;2023-02-02T01:31:13;101690.81;;;5.11;81.19
60974;BME280;46846;51.528;5.076;2023-02-02T01:33:39;101689.06;;;5.02;82.33
60974;BME280;46846;51.528;5.076;2023-02-02T01:36:09;101690.78;;;4.97;82.09
60974;BME280;46846;51.528;5.076;2023-02-02T01:38:35;101688.19;;;5.11;81.97
60974;BME280;46846;51.528;5.076;2023-02-02T01:41:01;101691.69;;;5.07;81.32
60974;BME280;46846;51.528;5.076;2023-02-02T01:46:11;101687.31;;;5.15;81.62
60974;BME280;46846;51.528;5.076;2023-02-02T01:48:40;101693.47;;;5.14;81.86
60974;BME280;46846;51.528;5.076;2023-02-02T01:51:11;101687.31;;;5.11;82.23
60974;BME280;46846;51.528;5.076;2023-02-02T01:53:37;101682.88;;;4.96;82.50
60974;BME280;46846;51.528;5.076;2023-02-02T01:56:04;101691.69;;;5.07;82.05
60974;BME280;46846;51.528;5.076;2023-02-02T01:58:37;101687.28;;;4.95;82.45
60974;BME280;46846;51.528;5.076;2023-02-02T02:01:04;101675.00;;;5.03;82.00
60974;BME280;46846;51.528;5.076;2023-02-02T02:03:32;101680.28;;;5.10;81.81
60974;BME280;46846;51.528;5.076;2023-02-02T02:06:03;101684.66;;;5.04;82.32
60974;BME280;46846;51.528;5.076;2023-02-02T02:08:37;101678.50;;;5.10;81.73
60974;BME280;46846;51.528;5.076;2023-02-02T02:11:03;101689.97;;;5.15;81.97
60974;BME280;46846;51.528;5.076;2023-02-02T02:13:30;101692.59;;;5.11;81.90
60974;BME280;46846;51.528;5.076;2023-02-02T02:16:28;101687.31;;;5.11;82.24
60974;BME280;46846;51.528;5.076;2023-02-02T02:22:13;101683.78;;;5.15;81.45
60974;BME280;46846;51.528;5.076;2023-02-02T02:25:42;101686.41;;;5.04;81.97
60974;BME280;46846;51.528;5.076;2023-02-02T02:32:13;101689.06;;;5.21;81.86
60974;BME280;46846;51.528;5.076;2023-02-02T02:34:16;101688.22;;;5.19;82.03
60974;BME280;46846;51.528;5.076;2023-02-02T02:36:50;101687.34;;;5.17;81.54
60974;BME280;46846;51.528;5.076;2023-02-02T02:39:32;101700.50;;;5.11;82.25
60974;BME280;46846;51.528;5.076;2023-02-02T02:42:12;101698.75;;;5.08;82.08
60974;BME280;46846;51.528;5.076;2023-02-02T02:44:39;101706.66;;;5.16;82.22
60974;BME280;46846;51.528;5.076;2023-02-02T02:47:05;101697.84;;;5.14;82.38
60974;BME280;46846;51.528;5.076;2023-02-02T02:49:32;101695.22;;;5.09;81.91
60974;BME280;46846;51.528;5.076;2023-02-02T02:51:57;101697.88;;;5.11;82.09
60974;BME280;46846;51.528;5.076;2023-02-02T02:54:39;101702.22;;;5.04;82.41
60974;BME280;46846;51.528;5.076;2023-02-02T02:57:37;101692.63;;;5.22;80.96
60974;BME280;46846;51.528;5.076;2023-02-02T03:01:08;101691.72;;;5.12;82.16
60974;BME280;46846;51.528;5.076;2023-02-02T03:03:22;101694.34;;;5.12;81.79
60974;BME280;46846;51.528;5.076;2023-02-02T03:09:11;101688.19;;;5.22;82.17
60974;BME280;46846;51.528;5.076;2023-02-02T03:11:29;101689.94;;;5.11;81.97
60974;BME280;46846;51.528;5.076;2023-02-02T03:13:55;101696.13;;;5.14;82.54
60974;BME280;46846;51.528;5.076;2023-02-02T03:16:20;101693.47;;;5.14;82.14
60974;BME280;46846;51.528;5.076;2023-02-02T03:18:46;101700.50;;;5.18;82.02
60974;BME280;46846;51.528;5.076;2023-02-02T03:21:11;101697.88;;;5.20;81.62
60974;BME280;46846;51.528;5.076;2023-02-02T03:23:37;101697.91;;;5.26;81.98
60974;BME280;46846;51.528;5.076;2023-02-02T03:26:03;101701.41;;;5.27;82.00
60974;BME280;46846;51.528;5.076;2023-02-02T03:28:29;101700.53;;;5.22;81.61
60974;BME280;46846;51.528;5.076;2023-02-02T03:30:57;101701.41;;;5.25;81.85
60974;BME280;46846;51.528;5.076;2023-02-02T03:33:25;101697.88;;;5.29;81.78
60974;BME280;46846;51.528;5.076;2023-02-02T03:35:51;101695.22;;;5.23;82.17
60974;BME280;46846;51.528;5.076;2023-02-02T03:38:16;101682.06;;;5.28;81.43
60974;BME280;46846;51.528;5.076;2023-02-02T03:40:42;101682.06;;;5.29;81.46
60974;BME280;46846;51.528;5.076;2023-02-02T03:43:07;101674.16;;;5.26;81.45
60974;BME280;46846;51.528;5.076;2023-02-02T03:45:32;101689.97;;;5.22;81.81
60974;BME280;46846;51.528;5.076;2023-02-02T03:48:04;101695.25;;;5.25;81.93
60974;BME280;46846;51.528;5.076;2023-02-02T03:50:30;101706.66;;;5.14;82.15
60974;BME280;46846;51.528;5.076;2023-02-02T03:52:56;101701.38;;;5.10;82.22
60974;BME280;46846;51.528;5.076;2023-02-02T03:55:21;101710.19;;;5.23;81.96
60974;BME280;46846;51.528;5.076;2023-02-02T03:57:46;101712.84;;;5.24;82.06
60974;BME280;46846;51.528;5.076;2023-02-02T04:00:12;101717.22;;;5.22;81.93
60974;BME280;46846;51.528;5.076;2023-02-02T04:02:38;101719.84;;;5.17;81.97
60974;BME280;46846;51.528;5.076;2023-02-02T04:05:04;101718.13;;;5.23;82.03
60974;BME280;46846;51.528;5.076;2023-02-02T04:07:29;101716.31;;;5.12;82.02
60974;BME280;46846;51.528;5.076;2023-02-02T04:09:55;101717.25;;;5.20;81.53
60974;BME280;46846;51.528;5.076;2023-02-02T04:12:20;101721.63;;;5.23;81.65
60974;BME280;46846;51.528;5.076;2023-02-02T04:14:45;101713.69;;;5.15;82.10
60974;BME280;46846;51.528;5.076;2023-02-02T04:17:11;101719.84;;;5.11;82.05
60974;BME280;46846;51.528;5.076;2023-02-02T04:19:36;101720.75;;;5.18;82.00
60974;BME280;46846;51.528;5.076;2023-02-02T04:22:02;101720.75;;;5.23;82.07
60974;BME280;46846;51.528;5.076;2023-02-02T04:24:27;101718.09;;;5.19;81.72
60974;BME280;46846;51.528;5.076;2023-02-02T04:26:52;101725.13;;;5.17;82.01
60974;BME280;46846;51.528;5.076;2023-02-02T04:29:18;101722.50;;;5.24;82.39
60974;BME280;46846;51.528;5.076;2023-02-02T04:31:43;101731.28;;;5.12;82.09
60974;BME280;46846;51.528;5.076;2023-02-02T04:34:08;101732.16;;;5.14;82.14
60974;BME280;46846;51.528;5.076;2023-02-02T04:36:34;101729.53;;;5.06;82.66
60974;BME280;46846;51.528;5.076;2023-02-02T04:38:59;101727.75;;;5.13;82.12
60974;BME280;46846;51.528;5.076;2023-02-02T04:41:25;101728.66;;;5.19;82.30
60974;BME280;46846;51.528;5.076;2023-02-02T04:43:51;101723.38;;;5.15;82.33
60974;BME280;46846;51.528;5.076;2023-02-02T04:46:17;101729.53;;;5.15;82.37
60974;BME280;46846;51.528;5.076;2023-02-02T04:48:42;101725.09;;;5.06;82.33
60974;BME280;46846;51.528;5.076;2023-02-02T04:51:11;101722.50;;;5.17;82.02
60974;BME280;46846;51.528;5.076;2023-02-02T04:53:37;101718.09;;;5.16;82.54
60974;BME280;46846;51.528;5.076;2023-02-02T04:56:05;101716.34;;;5.23;82.03
60974;BME280;46846;51.528;5.076;2023-02-02T04:58:31;101705.78;;;5.23;82.02
60974;BME280;46846;51.528;5.076;2023-02-02T05:00:57;101711.94;;;5.17;82.06
60974;BME280;46846;51.528;5.076;2023-02-02T05:03:22;101704.91;;;5.21;81.95
60974;BME280;46846;51.528;5.076;2023-02-02T05:05:47;101721.59;;;5.14;82.37
60974;BME280;46846;51.528;5.076;2023-02-02T05:08:13;101722.47;;;5.16;81.73
60974;BME280;46846;51.528;5.076;2023-02-02T05:10:39;101723.38;;;5.12;82.21
60974;BME280;46846;51.528;5.076;2023-02-02T05:13:06;101731.28;;;5.10;82.78
60974;BME280;46846;51.528;5.076;2023-02-02T05:15:31;101733.03;;;5.16;82.47
60974;BME280;46846;51.528;5.076;2023-02-02T05:17:57;101735.69;;;5.10;82.33
60974;BME280;46846;51.528;5.076;2023-02-02T05:20:23;101736.56;;;5.16;82.03
60974;BME280;46846;51.528;5.076;2023-02-02T05:22:48;101730.41;;;5.14;82.46
60974;BME280;46846;51.528;5.076;2023-02-02T05:25:14;101733.06;;;5.20;82.30
60974;BME280;46846;51.528;5.076;2023-02-02T05:27:42;101729.53;;;5.11;82.23
60974;BME280;46846;51.528;5.076;2023-02-02T05:30:10;101733.91;;;5.10;82.33
60974;BME280;46846;51.528;5.076;2023-02-02T05:32:35;101725.13;;;5.11;81.86
60974;BME280;46846;51.528;5.076;2023-02-02T05:35:01;101725.16;;;5.19;82.09
60974;BME280;46846;51.528;5.076;2023-02-02T05:37:26;101729.50;;;5.12;82.48
60974;BME280;46846;51.528;5.076;2023-02-02T05:39:51;101738.34;;;5.19;82.17
60974;BME280;46846;51.528;5.076;2023-02-02T05:42:17;101730.38;;;5.11;82.25
60974;BME280;46846;51.528;5.076;2023-02-02T05:44:43;101737.44;;;5.09;82.30
60974;BME280;46846;51.528;5.076;2023-02-02T05:47:08;101737.41;;;5.07;82.88
60974;BME280;46846;51.528;5.076;2023-02-02T05:49:34;101740.94;;;5.08;82.62
60974;BME280;46846;51.528;5.076;2023-02-02T05:51:59;101736.56;;;5.12;81.78
60974;BME280;46846;51.528;5.076;2023-02-02T05:54:24;101741.84;;;5.21;82.25
60974;BME280;46846;51.528;5.076;2023-02-02T05:56:51;101741.84;;;5.21;81.94
60974;BME280;46846;51.528;5.076;2023-02-02T05:59:17;101749.78;;;5.21;81.85
60974;BME280;46846;51.528;5.076;2023-02-02T06:01:44;101738.34;;;5.25;81.68
60974;BME280;46846;51.528;5.076;2023-02-02T06:04:09;101744.53;;;5.24;81.71
60974;BME280;46846;51.528;5.076;2023-02-02T06:06:35;101750.63;;;5.12;82.19
60974;BME280;46846;51.528;5.076;2023-02-02T06:09:02;101735.72;;;5.24;82.03
60974;BME280;46846;51.528;5.076;2023-02-02T06:11:27;101743.63;;;5.25;81.37
60974;BME280;46846;51.528;5.076;2023-02-02T06:13:53;101744.50;;;5.30;81.78
60974;BME280;46846;51.528;5.076;2023-02-02T06:16:18;101748.03;;;5.29;82.13
60974;BME280;46846;51.528;5.076;2023-02-02T06:18:43;101744.53;;;5.24;81.79
60974;BME280;46846;51.528;5.076;2023-02-02T06:21:10;101740.09;;;5.17;82.45
60974;BME280;46846;51.528;5.076;2023-02-02T06:23:35;101757.72;;;5.32;81.72
60974;BME280;46846;51.528;5.076;2023-02-02T06:26:01;101747.16;;;5.30;81.21
60974;BME280;46846;51.528;5.076;2023-02-02T06:28:31;101742.75;;;5.28;81.17
60974;BME280;46846;51.528;5.076;2023-02-02T06:31:05;101745.41;;;5.28;81.54
60974;BME280;46846;51.528;5.076;2023-02-02T06:33:31;101744.53;;;5.29;81.58
60974;BME280;46846;51.528;5.076;2023-02-02T06:36:03;101743.66;;;5.34;81.33
60974;BME280;46846;51.528;5.076;2023-02-02T06:38:30;101745.38;;;5.34;81.67
60974;BME280;46846;51.528;5.076;2023-02-02T06:40:59;101756.84;;;5.30;81.47
60974;BME280;46846;51.528;5.076;2023-02-02T06:43:25;101758.59;;;5.34;81.67
60974;BME280;46846;51.528;5.076;2023-02-02T06:45:51;101770.91;;;5.30;81.81
60974;BME280;46846;51.528;5.076;2023-02-02T06:48:16;101777.06;;;5.29;81.26
60974;BME280;46846;51.528;5.076;2023-02-02T06:50:41;101781.44;;;5.30;82.02
60974;BME280;46846;51.528;5.076;2023-02-02T06:53:07;101776.19;;;5.32;81.92
60974;BME280;46846;51.528;5.076;2023-02-02T06:55:32;101778.81;;;5.27;81.63
60974;BME280;46846;51.528;5.076;2023-02-02T06:57:59;101785.00;;;5.32;81.77
60974;BME280;46846;51.528;5.076;2023-02-02T07:00:25;101799.03;;;5.24;81.97
60974;BME280;46846;51.528;5.076;2023-02-02T07:02:51;101798.13;;;5.15;82.57
60974;BME280;46846;51.528;5.076;2023-02-02T07:05:17;101793.72;;;5.17;82.73
60974;BME280;46846;51.528;5.076;2023-02-02T07:07:44;101791.13;;;5.20;81.99
60974;BME280;46846;51.528;5.076;2023-02-02T07:10:10;101800.81;;;5.28;81.40
60974;BME280;46846;51.528;5.076;2023-02-02T07:12:36;101802.56;;;5.23;81.74
60974;BME280;46846;51.528;5.076;2023-02-02T07:15:01;101801.66;;;5.22;82.32
60974;BME280;46846;51.528;5.076;2023-02-02T07:17:27;101806.06;;;5.17;82.21
60974;BME280;46846;51.528;5.076;2023-02-02T07:19:52;101799.00;;;5.14;82.84
60974;BME280;46846;51.528;5.076;2023-02-02T07:22:18;101791.09;;;5.10;82.38
60974;BME280;46846;51.528;5.076;2023-02-02T07:24:43;101785.78;;;5.06;82.56
60974;BME280;46846;51.528;5.076;2023-02-02T07:27:09;101794.59;;;5.10;82.42
60974;BME280;46846;51.528;5.076;2023-02-02T07:29:34;101797.25;;;5.15;82.34
60974;BME280;46846;51.528;5.076;2023-02-02T07:31:59;101790.22;;;5.15;82.23
60974;BME280;46846;51.528;5.076;2023-02-02T07:34:25;101794.56;;;5.04;82.56
60974;BME280;46846;51.528;5.076;2023-02-02T07:36:50;101795.44;;;5.07;83.04
60974;BME280;46846;51.528;5.076;2023-02-02T07:39:15;101807.81;;;5.13;83.04
60974;BME280;46846;51.528;5.076;2023-02-02T07:41:41;101804.28;;;5.10;82.86
60974;BME280;46846;51.528;5.076;2023-02-02T07:44:14;101806.88;;;5.06;83.00
60974;BME280;46846;51.528;5.076;2023-02-02T07:46:42;101810.44;;;5.12;83.00
60974;BME280;46846;51.528;5.076;2023-02-02T07:49:11;101812.19;;;5.13;83.00
60974;BME280;46846;51.528;5.076;2023-02-02T07:51:38;101807.78;;;5.15;82.65
60974;BME280;46846;51.528;5.076;2023-02-02T07:54:04;101807.78;;;5.15;82.94
60974;BME280;46846;51.528;5.076;2023-02-02T07:56:30;101806.03;;;5.14;82.26
60974;BME280;46846;51.528;5.076;2023-02-02T07:58:55;101811.31;;;5.15;82.52
60974;BME280;46846;51.528;5.076;2023-02-02T08:01:22;101808.69;;;5.14;82.24
60974;BME280;46846;51.528;5.076;2023-02-02T08:03:48;101809.59;;;5.19;82.91
60974;BME280;46846;51.528;5.076;2023-02-02T08:06:25;101801.69;;;5.25;82.57
60974;BME280;46846;51.528;5.076;2023-02-02T08:08:52;101814.00;;;5.29;81.92
60974;BME280;46846;51.528;5.076;2023-02-02T08:11:19;101827.19;;;5.25;81.95
60974;BME280;46846;51.528;5.076;2023-02-02T08:13:50;101840.38;;;5.17;82.65
60974;BME280;46846;51.528;5.076;2023-02-02T08:16:16;101842.13;;;5.21;82.66
60974;BME280;46846;51.528;5.076;2023-02-02T08:18:41;101829.84;;;5.26;82.26
60974;BME280;46846;51.528;5.076;2023-02-02T08:21:08;101828.97;;;5.24;81.88
60974;BME280;46846;51.528;5.076;2023-02-02T08:23:34;101832.47;;;5.22;81.97
60974;BME280;46846;51.528;5.076;2023-02-02T08:26:05;101835.09;;;5.25;82.48
60974;BME280;46846;51.528;5.076;2023-02-02T08:28:31;101836.88;;;5.23;82.19
60974;BME280;46846;51.528;5.076;2023-02-02T08:30:56;101842.16;;;5.30;82.09
60974;BME280;46846;51.528;5.076;2023-02-02T08:33:27;101836.00;;;5.28;82.58
60974;BME280;46846;51.528;5.076;2023-02-02T08:35:52;101832.47;;;5.25;82.52
60974;BME280;46846;51.528;5.076;2023-02-02T08:38:18;101838.59;;;5.17;82.80
60974;BME280;46846;51.528;5.076;2023-02-02T08:40:43;101834.16;;;5.05;83.42
60974;BME280;46846;51.528;5.076;2023-02-02T08:43:08;101858.78;;;5.09;82.95
60974;BME280;46846;51.528;5.076;2023-02-02T08:45:34;101851.84;;;5.25;82.68
60974;BME280;46846;51.528;5.076;2023-02-02T08:47:59;101859.78;;;5.31;82.58
60974;BME280;46846;51.528;5.076;2023-02-02T08:50:25;101867.59;;;5.10;83.15
60974;BME280;46846;51.528;5.076;2023-02-02T08:52:50;101872.88;;;5.17;82.92
60974;BME280;46846;51.528;5.076;2023-02-02T08:55:15;101880.81;;;5.22;82.23
60974;BME280;46846;51.528;5.076;2023-02-02T08:57:41;101885.22;;;5.20;82.79
60974;BME280;46846;51.528;5.076;2023-02-02T09:00:06;101880.84;;;5.20;82.95
60974;BME280;46846;51.528;5.076;2023-02-02T09:02:32;101893.19;;;5.26;82.26
60974;BME280;46846;51.528;5.076;2023-02-02T09:04:57;101896.63;;;5.16;82.92
60974;BME280;46846;51.528;5.076;2023-02-02T09:07:23;101903.72;;;5.25;82.68
60974;BME280;46846;51.528;5.076;2023-02-02T09:09:48;101899.31;;;5.27;83.01
60974;BME280;46846;51.528;5.076;2023-02-02T09:12:15;101910.78;;;5.30;82.18
60974;BME280;46846;51.528;5.076;2023-02-02T09:14:41;101911.59;;;5.18;83.20
60974;BME280;46846;51.528;5.076;2023-02-02T09:17:06;101908.03;;;5.10;83.48
60974;BME280;46846;51.528;5.076;2023-02-02T09:19:32;101925.69;;;5.19;83.24
60974;BME280;46846;51.528;5.076;2023-02-02T09:21:57;101917.63;;;5.00;83.17
60974;BME280;46846;51.528;5.076;2023-02-02T09:24:22;101922.09;;;5.04;83.24
60974;BME280;46846;51.528;5.076;2023-02-02T09:26:48;101925.69;;;5.22;82.29
60974;BME280;46846;51.528;5.076;2023-02-02T09:29:15;101923.03;;;5.19;82.71
60974;BME280;46846;51.528;5.076;2023-02-02T09:31:42;101932.69;;;5.15;82.57
60974;BME280;46846;51.528;5.076;2023-02-02T09:34:09;101933.59;;;5.22;82.93
60974;BME280;46846;51.528;5.076;2023-02-02T09:36:36;101933.63;;;5.20;82.55
60974;BME280;46846;51.528;5.076;2023-02-02T09:39:02;101935.34;;;5.20;82.69
60974;BME280;46846;51.528;5.076;2023-02-02T09:49:44;101956.53;;;5.28;82.43
60974;BME280;46846;51.528;5.076;2023-02-02T09:52:51;101960.91;;;5.24;82.81
60974;BME280;46846;51.528;5.076;2023-02-02T09:55:35;101960.94;;;5.37;82.83
60974;BME280;46846;51.528;5.076;2023-02-02T09:58:06;101963.56;;;5.30;82.80
60974;BME280;46846;51.528;5.076;2023-02-02T10:00:43;101976.69;;;5.21;83.20
60974;BME280;46846;51.528;5.076;2023-02-02T10:03:20;101971.47;;;5.29;83.07
60974;BME280;46846;51.528;5.076;2023-02-02T10:06:24;101975.03;;;5.32;82.26
60974;BME280;46846;51.528;5.076;2023-02-02T10:08:54;101969.72;;;5.31;83.45
60974;BME280;46846;51.528;5.076;2023-02-02T10:11:54;101961.88;;;5.46;82.42
60974;BME280;46846;51.528;5.076;2023-02-02T10:14:35;101956.66;;;5.57;82.05
60974;BME280;46846;51.528;5.076;2023-02-02T10:17:29;101956.66;;;5.60;81.80
60974;BME280;46846;51.528;5.076;2023-02-02T10:20:07;101958.38;;;5.49;82.44
60974;BME280;46846;51.528;5.076;2023-02-02T10:22:36;101957.47;;;5.44;82.18
60974;BME280;46846;51.528;5.076;2023-02-02T10:25:01;101954.03;;;5.60;81.65
60974;BME280;46846;51.528;5.076;2023-02-02T10:27:36;101963.75;;;5.61;81.62
60974;BME280;46846;51.528;5.076;2023-02-02T10:30:07;101945.25;;;5.65;81.80
60974;BME280;46846;51.528;5.076;2023-02-02T10:32:53;101956.69;;;5.64;82.11
60974;BME280;46846;51.528;5.076;2023-02-02T10:45:51;101974.34;;;5.74;81.22
60974;BME280;46846;51.528;5.076;2023-02-02T10:48:20;101984.88;;;5.61;82.17
60974;BME280;46846;51.528;5.076;2023-02-02T10:50:53;101983.13;;;5.73;81.72
60974;BME280;46846;51.528;5.076;2023-02-02T10:53:19;101978.69;;;5.64;81.93
60974;BME280;46846;51.528;5.076;2023-02-02T10:55:49;101990.16;;;5.72;82.14
60974;BME280;46846;51.528;5.076;2023-02-02T10:58:25;101981.34;;;5.67;82.45
60974;BME280;46846;51.528;5.076;2023-02-02T11:00:57;101985.75;;;5.65;82.05
60974;BME280;46846;51.528;5.076;2023-02-02T11:03:28;101985.78;;;5.78;82.17
60974;BME280;46846;51.528;5.076;2023-02-02T11:05:56;101990.19;;;5.74;81.86
60974;BME280;46846;51.528;5.076;2023-02-02T11:08:52;101983.16;;;5.78;82.11
60974;BME280;46846;51.528;5.076;2023-02-02T11:14:12;101999.88;;;5.80;81.71
60974;BME280;46846;51.528;5.076;2023-02-02T11:16:44;101996.38;;;5.81;82.02
60974;BME280;46846;51.528;5.076;2023-02-02T11:21:44;101989.28;;;5.75;82.02
60974;BME280;46846;51.528;5.076;2023-02-02T11:24:26;101981.34;;;5.70;82.20
60974;BME280;46846;51.528;5.076;2023-02-02T11:26:55;101976.06;;;5.70;82.36
60974;BME280;46846;51.528;5.076;2023-02-02T11:29:27;101977.84;;;5.73;82.11
60974;BME280;46846;51.528;5.076;2023-02-02T11:31:53;101967.28;;;5.70;82.02
60974;BME280;46846;51.528;5.076;2023-02-02T11:34:25;101974.34;;;5.80;82.33
60974;BME280;46846;51.528;5.076;2023-02-02T11:37:00;101973.47;;;5.81;81.68
60974;BME280;46846;51.528;5.076;2023-02-02T11:39:27;101973.50;;;5.83;81.59
60974;BME280;46846;51.528;5.076;2023-02-02T11:42:00;101974.34;;;5.79;82.24
60974;BME280;46846;51.528;5.076;2023-02-02T11:44:27;101979.63;;;5.80;82.01
60974;BME280;46846;51.528;5.076;2023-02-02T11:46:53;101977.03;;;5.89;82.00
60974;BME280;46846;51.528;5.076;2023-02-02T11:49:21;101977.91;;;5.85;82.39
60974;BME280;46846;51.528;5.076;2023-02-02T11:52:14;101966.44;;;5.83;82.18
60974;BME280;46846;51.528;5.076;2023-02-02T11:54:46;101979.66;;;5.86;81.72
60974;BME280;46846;51.528;5.076;2023-02-02T11:57:16;101975.25;;;5.82;82.84
60974;BME280;46846;51.528;5.076;2023-02-02T11:59:44;101981.38;;;5.75;83.01
60974;BME280;46846;51.528;5.076;2023-02-02T12:02:22;101987.56;;;5.80;82.51
60974;BME280;46846;51.528;5.076;2023-02-02T12:04:53;101991.97;;;5.78;82.64
60974;BME280;46846;51.528;5.076;2023-02-02T12:07:24;101984.06;;;5.87;82.37
60974;BME280;46846;51.528;5.076;2023-02-02T12:09:51;101976.16;;;5.84;82.11
60974;BME280;46846;51.528;5.076;2023-02-02T12:17:42;101982.28;;;5.83;82.83
60974;BME280;46846;51.528;5.076;2023-02-02T12:20:49;101984.94;;;5.77;82.69
60974;BME280;46846;51.528;5.076;2023-02-02T12:24:12;101967.31;;;5.84;82.46
60974;BME280;46846;51.528;5.076;2023-02-02T12:26:27;101960.25;;;5.80;82.54
60974;BME280;46846;51.528;5.076;2023-02-02T12:29:24;101957.66;;;5.83;83.37
60974;BME280;46846;51.528;5.076;2023-02-02T12:32:24;101958.53;;;5.89;82.45
60974;BME280;46846;51.528;5.076;2023-02-02T12:35:00;101956.81;;;5.96;82.14
60974;BME280;46846;51.528;5.076;2023-02-02T12:51:22;101955.91;;;5.94;83.05
60974;BME280;46846;51.528;5.076;2023-02-02T12:59:39;101955.03;;;5.94;83.48
60974;BME280;46846;51.528;5.076;2023-02-02T13:02:32;101946.22;;;5.90;83.38
60974;BME280;46846;51.528;5.076;2023-02-02T13:07:37;101958.53;;;5.86;84.06
60974;BME280;46846;51.528;5.076;2023-02-02T13:10:17;101951.53;;;5.92;83.18
60974;BME280;46846;51.528;5.076;2023-02-02T13:13:08;101941.81;;;5.97;83.37
60974;BME280;46846;51.528;5.076;2023-02-02T13:15:40;101940.06;;;5.93;83.88
60974;BME280;46846;51.528;5.076;2023-02-02T13:18:12;101946.25;;;6.01;83.50
60974;BME280;46846;51.528;5.076;2023-02-02T13:20:48;101943.66;;;6.06;82.76
60974;BME280;46846;51.528;5.076;2023-02-02T13:23:20;101952.47;;;6.15;83.43
60974;BME280;46846;51.528;5.076;2023-02-02T13:26:11;101948.97;;;6.21;82.34
60974;BME280;46846;51.528;5.076;2023-02-02T13:28:44;101941.03;;;6.17;82.81
60974;BME280;46846;51.528;5.076;2023-02-02T13:31:17;101933.97;;;6.14;82.90
60974;BME280;46846;51.528;5.076;2023-02-02T13:33:45;101929.56;;;6.11;82.97
60974;BME280;46846;51.528;5.076;2023-02-02T13:36:33;101937.50;;;6.21;83.15
60974;BME280;46846;51.528;5.076;2023-02-02T13:39:11;101936.63;;;6.14;83.11
60974;BME280;46846;51.528;5.076;2023-02-02T13:41:39;101940.13;;;6.10;82.95
60974;BME280;46846;51.528;5.076;2023-02-02T13:44:12;101945.41;;;6.10;82.93
60974;BME280;46846;51.528;5.076;2023-02-02T13:47:19;101947.19;;;6.19;82.49
60974;BME280;46846;51.528;5.076;2023-02-02T13:49:52;101937.50;;;6.22;81.99
60974;BME280;46846;51.528;5.076;2023-02-02T13:55:55;101941.03;;;6.20;82.43
60974;BME280;46846;51.528;5.076;2023-02-02T14:00:49;101938.38;;;6.17;82.73
60974;BME280;46846;51.528;5.076;2023-02-02T14:03:40;101936.63;;;6.19;82.41
60974;BME280;46846;51.528;5.076;2023-02-02T14:06:10;101942.78;;;6.08;83.58
60974;BME280;46846;51.528;5.076;2023-02-02T14:08:43;101945.44;;;6.24;82.53
60974;BME280;46846;51.528;5.076;2023-02-02T14:11:16;101950.72;;;6.22;83.08
60974;BME280;46846;51.528;5.076;2023-02-02T14:13:47;101947.19;;;6.23;82.49
60974;BME280;46846;51.528;5.076;2023-02-02T14:19:02;101948.94;;;6.24;82.96
60974;BME280;46846;51.528;5.076;2023-02-02T14:26:51;101956.91;;;6.26;83.07
60974;BME280;46846;51.528;5.076;2023-02-02T14:45:30;101976.31;;;6.36;82.47
60974;BME280;46846;51.528;5.076;2023-02-02T14:58:21;101987.78;;;6.44;82.39